Time;durP1;ratioP1;P1;durP2;ratioP2;P2;SDS_P1;SDS_P2;PMS_P1;PMS_P2;Temp;Humidity;BMP_temperature;BMP_pressure;BME280_temperature;BME280_humidity;BME280_pressure;Samples;Min_cycle;Max_cycle;Signal;HPM_P1;HPM_P2
2021/05/05 00:01:05;;;;;;;1.10;1.10;;;11.10;55.80;;;;;;1486554;40;20029;-53
2021/05/05 00:02:26;;;;;;;2.20;1.30;;;11.20;55.70;;;;;;1490133;39;20063;-55
2021/05/05 00:03:47;;;;;;;1.58;1.13;;;11.20;55.70;;;;;;1486544;40;20029;-53
2021/05/05 00:05:08;;;;;;;2.20;1.25;;;11.20;55.80;;;;;;1490248;39;20031;-53
2021/05/05 00:06:29;;;;;;;2.00;1.20;;;11.20;55.80;;;;;;1490851;39;20024;-52
2021/05/05 00:07:50;;;;;;;2.38;1.40;;;11.20;55.80;;;;;;1490753;39;20075;-53
2021/05/05 00:09:11;;;;;;;1.20;1.10;;;11.20;55.90;;;;;;1491162;39;20035;-54
2021/05/05 00:10:32;;;;;;;3.22;1.30;;;11.20;55.90;;;;;;1491528;39;20032;-53
2021/05/05 00:11:53;;;;;;;2.33;1.10;;;11.20;55.80;;;;;;1489973;39;20055;-56
2021/05/05 00:13:15;;;;;;;2.90;1.30;;;11.20;55.80;;;;;;1491442;39;20034;-53
2021/05/05 00:14:36;;;;;;;1.45;1.27;;;11.20;55.80;;;;;;1491175;39;20039;-54
2021/05/05 00:15:57;;;;;;;1.10;1.00;;;11.20;55.70;;;;;;1486795;40;20121;-54
2021/05/05 00:17:18;;;;;;;1.58;1.48;;;11.20;55.60;;;;;;1490684;39;20044;-54
2021/05/05 00:18:39;;;;;;;1.90;1.15;;;11.20;55.60;;;;;;1491336;39;20312;-54
2021/05/05 00:20:00;;;;;;;1.42;1.33;;;11.20;55.60;;;;;;1491031;39;20064;-53
2021/05/05 00:21:21;;;;;;;1.95;1.30;;;11.20;55.50;;;;;;1490954;39;20031;-53
2021/05/05 00:22:42;;;;;;;1.20;1.10;;;11.10;55.50;;;;;;1490204;39;20038;-55
2021/05/05 00:24:04;;;;;;;1.45;1.08;;;11.10;55.50;;;;;;1490133;39;20357;-53
2021/05/05 00:25:25;;;;;;;2.10;1.40;;;11.10;55.50;;;;;;1488264;39;20089;-53
2021/05/05 00:26:46;;;;;;;1.25;1.20;;;11.10;55.40;;;;;;1489287;39;20038;-53
2021/05/05 00:28:07;;;;;;;1.10;1.00;;;11.10;55.30;;;;;;1491017;39;20040;-56
2021/05/05 00:29:28;;;;;;;2.03;1.40;;;11.10;55.30;;;;;;1489999;39;20032;-56
2021/05/05 00:30:49;;;;;;;2.10;1.40;;;11.10;55.40;;;;;;1490037;39;20343;-54
2021/05/05 00:32:10;;;;;;;1.30;1.00;;;11.10;55.30;;;;;;1491361;39;20353;-54
2021/05/05 00:33:31;;;;;;;2.13;1.20;;;11.10;55.30;;;;;;1490261;39;20079;-54
2021/05/05 00:34:52;;;;;;;1.45;1.10;;;11.00;55.40;;;;;;1490800;39;20035;-54
2021/05/05 00:36:13;;;;;;;1.38;1.27;;;11.00;55.40;;;;;;1490822;39;20120;-53
2021/05/05 00:37:34;;;;;;;1.00;1.00;;;11.00;55.40;;;;;;1490949;39;20429;-53
2021/05/05 00:38:55;;;;;;;2.75;1.25;;;11.00;55.50;;;;;;1491418;39;20036;-53
2021/05/05 00:40:17;;;;;;;1.77;1.35;;;11.00;55.50;;;;;;1491486;39;20094;-54
2021/05/05 00:41:37;;;;;;;1.60;1.40;;;11.00;55.50;;;;;;1489760;39;20028;-54
2021/05/05 00:42:59;;;;;;;1.48;1.30;;;11.00;55.40;;;;;;1491009;39;20072;-52
2021/05/05 00:44:22;;;;;;;2.38;1.50;;;11.00;55.50;;;;;;1490774;39;20048;-54
2021/05/05 00:45:43;;;;;;;1.63;1.52;;;11.00;55.50;;;;;;1491584;39;20031;-55
2021/05/05 00:47:03;;;;;;;2.28;1.50;;;11.00;55.40;;;;;;1491464;39;20026;-55
2021/05/05 00:48:24;;;;;;;1.40;1.30;;;11.00;55.40;;;;;;1485490;40;20020;-52
2021/05/05 00:49:45;;;;;;;1.95;1.40;;;11.00;55.50;;;;;;1485396;40;20027;-50
2021/05/05 00:51:06;;;;;;;3.15;1.30;;;11.00;55.50;;;;;;1489083;39;20028;-53
2021/05/05 00:52:27;;;;;;;3.17;1.40;;;11.00;55.70;;;;;;1489261;39;20039;-51
2021/05/05 00:53:48;;;;;;;2.25;1.27;;;10.90;55.60;;;;;;1489097;39;20032;-53
2021/05/05 00:55:11;;;;;;;3.17;1.38;;;10.90;56.00;;;;;;1488833;39;20032;-53
2021/05/05 00:56:32;;;;;;;2.35;1.58;;;10.90;55.60;;;;;;1488184;39;20039;-54
2021/05/05 00:57:53;;;;;;;2.63;1.38;;;10.90;55.60;;;;;;1490734;39;20261;-52
2021/05/05 00:59:14;;;;;;;1.80;1.30;;;10.90;55.70;;;;;;1490219;39;20116;-52
2021/05/05 01:00:35;;;;;;;1.67;1.40;;;10.90;55.70;;;;;;1491102;39;20068;-52
2021/05/05 01:01:55;;;;;;;1.65;1.42;;;10.90;55.70;;;;;;1490659;39;20128;-52
2021/05/05 01:03:18;;;;;;;1.50;1.40;;;10.90;55.70;;;;;;1491508;39;20032;-53
2021/05/05 01:04:39;;;;;;;1.40;1.25;;;10.90;55.90;;;;;;1491819;39;20036;-53
2021/05/05 01:06:03;;;;;;;2.65;1.65;;;11.00;55.90;;;;;;1491955;39;20545;-55
2021/05/05 01:07:24;;;;;;;2.38;1.40;;;11.00;55.90;;;;;;1490068;39;20032;-50
2021/05/05 01:08:47;;;;;;;1.60;1.40;;;11.00;55.80;;;;;;1492182;39;20035;-54
2021/05/05 01:10:11;;;;;;;2.50;1.45;;;11.00;55.80;;;;;;1492001;39;20062;-55
2021/05/05 01:11:32;;;;;;;2.90;1.55;;;11.00;55.80;;;;;;1491339;39;20038;-55
2021/05/05 01:12:55;;;;;;;2.33;1.42;;;11.00;55.80;;;;;;1491470;39;20036;-55
2021/05/05 01:14:16;;;;;;;2.20;1.52;;;11.00;55.70;;;;;;1491851;39;20031;-54
2021/05/05 01:15:37;;;;;;;1.65;1.55;;;11.00;55.70;;;;;;1492003;39;20534;-55
2021/05/05 01:16:58;;;;;;;2.00;1.80;;;11.00;55.70;;;;;;1491717;39;20032;-54
2021/05/05 01:18:19;;;;;;;1.77;1.30;;;11.00;55.70;;;;;;1490762;39;20113;-51
2021/05/05 01:19:40;;;;;;;4.03;1.70;;;11.00;55.80;;;;;;1490016;39;20036;-54
2021/05/05 01:21:01;;;;;;;2.70;2.00;;;11.00;55.70;;;;;;1491790;39;20027;-55
2021/05/05 01:22:22;;;;;;;3.85;1.85;;;11.00;55.70;;;;;;1491743;39;20072;-52
2021/05/05 01:23:43;;;;;;;2.22;1.40;;;11.00;55.70;;;;;;1491610;39;20051;-54
2021/05/05 01:25:06;;;;;;;1.70;1.55;;;11.00;55.70;;;;;;1491314;39;20043;-52
2021/05/05 01:26:30;;;;;;;2.05;1.70;;;11.00;55.70;;;;;;1490944;39;20020;-54
2021/05/05 01:27:52;;;;;;;2.38;1.55;;;11.00;55.90;;;;;;1490849;39;20023;-54
2021/05/05 01:29:13;;;;;;;2.35;1.50;;;11.00;56.00;;;;;;1489759;39;20075;-54
2021/05/05 01:30:34;;;;;;;2.28;1.70;;;11.00;56.10;;;;;;1490913;39;20408;-52
2021/05/05 01:31:55;;;;;;;1.83;1.70;;;11.00;56.10;;;;;;1490611;39;20064;-54
2021/05/05 01:33:16;;;;;;;1.67;1.58;;;11.00;56.30;;;;;;1492059;39;20066;-52
2021/05/05 01:34:38;;;;;;;2.75;1.70;;;10.90;56.20;;;;;;1491986;39;20361;-55
2021/05/05 01:35:59;;;;;;;2.70;1.80;;;10.90;56.20;;;;;;1490087;39;20074;-54
2021/05/05 01:37:19;;;;;;;2.67;1.60;;;10.90;56.20;;;;;;1491255;39;20036;-54
2021/05/05 01:38:40;;;;;;;2.80;1.98;;;10.90;56.30;;;;;;1491227;39;20027;-55
2021/05/05 01:40:04;;;;;;;6.22;2.10;;;10.90;56.30;;;;;;1492087;39;20042;-56
2021/05/05 01:41:25;;;;;;;2.50;1.98;;;10.80;56.30;;;;;;1490821;39;20088;-55
2021/05/05 01:42:46;;;;;;;1.83;1.60;;;10.80;56.10;;;;;;1490661;39;20015;-55
2021/05/05 01:44:07;;;;;;;2.70;1.60;;;10.80;56.10;;;;;;1491214;39;20276;-51
2021/05/05 01:45:28;;;;;;;2.35;1.95;;;10.80;56.30;;;;;;1491928;39;20032;-54
2021/05/05 01:46:49;;;;;;;2.70;1.63;;;10.80;56.30;;;;;;1492016;39;20062;-53
2021/05/05 01:48:10;;;;;;;2.85;1.88;;;10.80;56.40;;;;;;1492257;39;20365;-54
2021/05/05 01:49:31;;;;;;;4.78;2.03;;;10.70;56.40;;;;;;1491299;39;20082;-55
2021/05/05 01:50:52;;;;;;;4.72;2.30;;;10.70;56.30;;;;;;1491118;39;20257;-52
2021/05/05 01:52:15;;;;;;;2.17;1.90;;;10.70;56.40;;;;;;1491759;39;20301;-53
2021/05/05 01:53:36;;;;;;;5.57;2.05;;;10.70;56.40;;;;;;1491065;39;20376;-54
2021/05/05 01:54:57;;;;;;;3.85;2.00;;;10.70;56.40;;;;;;1491880;39;20117;-50
2021/05/05 01:56:18;;;;;;;2.40;2.08;;;10.70;56.40;;;;;;1491129;39;20032;-55
2021/05/05 01:57:43;;;;;;;3.75;2.42;;;10.70;56.40;;;;;;1490508;39;20353;-53
2021/05/05 01:59:04;;;;;;;3.45;1.80;;;10.70;56.40;;;;;;1491352;39;20027;-54
2021/05/05 02:00:27;;;;;;;2.53;2.00;;;10.70;56.50;;;;;;1490180;39;20047;-50
2021/05/05 02:01:48;;;;;;;2.58;2.38;;;10.60;56.50;;;;;;1490268;39;20020;-56
2021/05/05 02:03:10;;;;;;;3.10;2.15;;;10.60;56.50;;;;;;1491976;39;20032;-52
2021/05/05 02:04:31;;;;;;;2.15;1.98;;;10.60;56.60;;;;;;1491539;39;20119;-54
2021/05/05 02:05:51;;;;;;;2.25;1.85;;;10.60;56.50;;;;;;1491178;39;20117;-55
2021/05/05 02:07:12;;;;;;;2.40;2.20;;;10.60;56.60;;;;;;1491749;39;20271;-54
2021/05/05 02:08:33;;;;;;;3.97;2.10;;;10.60;56.70;;;;;;1490743;39;20020;-53
2021/05/05 02:09:54;;;;;;;4.97;2.00;;;10.60;56.70;;;;;;1491767;39;20048;-52
2021/05/05 02:11:16;;;;;;;2.58;2.10;;;10.60;56.60;;;;;;1487022;40;20028;-56
2021/05/05 02:12:37;;;;;;;3.50;2.33;;;10.60;56.70;;;;;;1488663;39;20031;-54
2021/05/05 02:13:58;;;;;;;2.42;1.83;;;10.60;56.80;;;;;;1489653;39;20541;-55
2021/05/05 02:15:21;;;;;;;3.08;2.03;;;10.60;56.70;;;;;;1489513;39;20040;-56
2021/05/05 02:16:42;;;;;;;2.50;1.90;;;10.60;56.70;;;;;;1491706;39;20092;-52
2021/05/05 02:18:06;;;;;;;4.93;2.20;;;10.60;56.70;;;;;;1491091;39;20023;-55
2021/05/05 02:19:27;;;;;;;3.20;1.73;;;10.50;56.60;;;;;;1491360;39;20116;-55
2021/05/05 02:20:48;;;;;;;2.63;2.30;;;10.50;56.60;;;;;;1491009;39;20032;-55
2021/05/05 02:22:09;;;;;;;2.53;2.20;;;10.50;56.70;;;;;;1491349;39;20061;-54
2021/05/05 02:23:30;;;;;;;3.83;2.20;;;10.50;56.70;;;;;;1491630;39;20046;-55
2021/05/05 02:24:51;;;;;;;4.20;2.30;;;10.50;56.70;;;;;;1491393;39;20040;-54
2021/05/05 02:26:12;;;;;;;3.72;2.35;;;10.50;56.70;;;;;;1491795;39;20023;-55
2021/05/05 02:27:34;;;;;;;3.20;2.20;;;10.50;56.70;;;;;;1489981;39;20028;-54
2021/05/05 02:28:55;;;;;;;2.92;2.10;;;10.50;56.80;;;;;;1491882;39;20346;-56
2021/05/05 02:30:17;;;;;;;2.28;2.08;;;10.50;56.70;;;;;;1491694;39;20040;-54
2021/05/05 02:31:38;;;;;;;2.60;2.40;;;10.50;57.30;;;;;;1491100;39;20060;-55
2021/05/05 02:32:59;;;;;;;2.45;2.20;;;10.50;56.80;;;;;;1491508;39;20068;-54
2021/05/05 02:34:20;;;;;;;3.60;2.28;;;10.50;56.70;;;;;;1491662;39;20263;-55
2021/05/05 02:35:41;;;;;;;2.72;2.05;;;10.50;56.70;;;;;;1490879;39;20107;-55
2021/05/05 02:37:08;;;;;;;2.97;1.92;;;10.50;56.70;;;;;;1487834;39;20410;-54
2021/05/05 02:38:29;;;;;;;3.75;1.95;;;10.50;56.70;;;;;;1490192;39;20047;-56
2021/05/05 02:39:51;;;;;;;1.92;1.83;;;10.50;56.70;;;;;;1490301;39;20393;-54
2021/05/05 02:41:12;;;;;;;2.10;1.90;;;10.50;56.70;;;;;;1491544;39;20125;-54
2021/05/05 02:42:33;;;;;;;2.55;2.20;;;10.40;56.70;;;;;;1492143;39;20036;-54
2021/05/05 02:43:54;;;;;;;3.35;2.30;;;10.40;56.70;;;;;;1491352;39;20027;-56
2021/05/05 02:45:15;;;;;;;5.13;2.47;;;10.40;56.70;;;;;;1489480;39;20528;-55
2021/05/05 02:46:37;;;;;;;3.72;2.63;;;10.40;56.70;;;;;;1489148;39;20102;-52
2021/05/05 02:47:58;;;;;;;3.08;2.30;;;10.40;56.70;;;;;;1491334;39;20034;-54
2021/05/05 02:49:18;;;;;;;2.20;2.03;;;10.40;56.70;;;;;;1491108;39;20047;-54
2021/05/05 02:50:39;;;;;;;2.40;1.83;;;10.40;56.70;;;;;;1491102;39;20528;-55
2021/05/05 02:52:02;;;;;;;2.38;2.17;;;10.40;56.70;;;;;;1491381;39;20355;-55
2021/05/05 02:53:23;;;;;;;3.50;2.03;;;10.40;56.80;;;;;;1490806;39;20058;-53
2021/05/05 02:54:45;;;;;;;2.95;2.35;;;10.40;56.70;;;;;;1490262;39;20023;-54
2021/05/05 02:56:06;;;;;;;3.60;2.20;;;10.40;56.80;;;;;;1492054;39;20086;-53
2021/05/05 02:57:26;;;;;;;2.65;1.92;;;10.40;56.80;;;;;;1491052;39;20052;-54
2021/05/05 02:58:47;;;;;;;3.53;2.20;;;10.40;56.80;;;;;;1486424;40;20320;-54
2021/05/05 03:00:10;;;;;;;2.78;2.17;;;10.30;56.80;;;;;;1486468;40;20028;-54
2021/05/05 03:01:31;;;;;;;5.15;2.30;;;10.30;56.80;;;;;;1491505;39;20136;-54
2021/05/05 03:02:52;;;;;;;2.47;2.28;;;10.30;56.80;;;;;;1490759;39;20397;-54
2021/05/05 03:04:13;;;;;;;3.58;2.33;;;10.30;56.80;;;;;;1491550;39;20039;-54
2021/05/05 03:05:34;;;;;;;2.80;2.20;;;10.30;56.90;;;;;;1491179;39;20024;-55
2021/05/05 03:06:55;;;;;;;2.28;2.00;;;10.30;57.00;;;;;;1490694;39;20027;-54
2021/05/05 03:08:18;;;;;;;2.72;2.45;;;10.30;57.10;;;;;;1491845;39;20037;-55
2021/05/05 03:09:39;;;;;;;3.40;2.65;;;10.30;57.10;;;;;;1489779;39;20027;-54
2021/05/05 03:11:01;;;;;;;3.42;2.20;;;10.30;57.00;;;;;;1491672;39;20371;-50
2021/05/05 03:12:21;;;;;;;3.03;2.17;;;10.30;57.10;;;;;;1490096;39;20088;-53
2021/05/05 03:13:42;;;;;;;4.63;2.45;;;10.30;57.10;;;;;;1488802;39;20372;-55
2021/05/05 03:15:06;;;;;;;2.20;2.00;;;10.30;57.10;;;;;;1490579;39;20028;-53
2021/05/05 03:16:27;;;;;;;2.60;2.00;;;10.30;57.30;;;;;;1489573;39;20028;-50
2021/05/05 03:17:48;;;;;;;3.17;2.10;;;10.30;57.20;;;;;;1491547;39;20035;-53
2021/05/05 03:19:09;;;;;;;3.42;2.33;;;10.30;57.20;;;;;;1489722;39;20028;-52
2021/05/05 03:20:30;;;;;;;4.13;2.50;;;10.30;57.20;;;;;;1491052;39;20020;-52
2021/05/05 03:21:51;;;;;;;2.65;2.40;;;10.20;57.30;;;;;;1489350;39;20059;-52
2021/05/05 03:23:13;;;;;;;2.50;2.30;;;10.20;57.20;;;;;;1492188;39;20023;-52
2021/05/05 03:24:34;;;;;;;3.72;2.42;;;10.30;57.30;;;;;;1489482;39;20039;-52
2021/05/05 03:25:55;;;;;;;4.10;2.67;;;10.20;57.20;;;;;;1489233;39;20320;-54
2021/05/05 03:27:16;;;;;;;4.00;2.65;;;10.20;57.20;;;;;;1491147;39;20264;-55
2021/05/05 03:28:37;;;;;;;4.78;2.97;;;10.20;57.20;;;;;;1486937;40;20027;-54
2021/05/05 03:29:57;;;;;;;3.13;2.38;;;10.20;57.30;;;;;;1489250;39;20049;-53
2021/05/05 03:31:18;;;;;;;2.70;2.50;;;10.20;57.30;;;;;;1491667;39;20494;-54
2021/05/05 03:32:39;;;;;;;6.75;2.90;;;10.20;57.30;;;;;;1491174;39;21017;-55
2021/05/05 03:34:01;;;;;;;5.82;2.85;;;10.20;57.30;;;;;;1491436;39;20028;-53
2021/05/05 03:35:22;;;;;;;4.88;2.92;;;10.20;57.20;;;;;;1491669;39;20038;-52
2021/05/05 03:36:45;;;;;;;3.05;2.72;;;10.20;57.20;;;;;;1486742;40;20105;-56
2021/05/05 03:38:06;;;;;;;3.10;2.83;;;10.20;57.30;;;;;;1490466;39;20055;-53
2021/05/05 03:39:26;;;;;;;5.38;2.83;;;10.20;57.20;;;;;;1490662;39;20039;-55
2021/05/05 03:40:47;;;;;;;4.18;2.88;;;10.20;57.20;;;;;;1490523;39;20056;-55
2021/05/05 03:42:08;;;;;;;5.70;2.78;;;10.20;57.20;;;;;;1490870;39;20030;-51
2021/05/05 03:43:29;;;;;;;4.72;3.13;;;10.20;57.30;;;;;;1490442;39;20032;-55
2021/05/05 03:44:50;;;;;;;3.95;2.80;;;10.20;57.30;;;;;;1488961;39;20131;-53
2021/05/05 03:46:11;;;;;;;3.42;3.00;;;10.10;57.30;;;;;;1491656;39;20687;-56
2021/05/05 03:47:32;;;;;;;5.30;3.45;;;10.10;57.30;;;;;;1491204;39;20034;-55
2021/05/05 03:48:53;;;;;;;3.90;3.03;;;10.10;57.40;;;;;;1491701;39;20117;-52
2021/05/05 03:50:14;;;;;;;3.78;2.22;;;10.10;57.40;;;;;;1487289;39;20043;-55
2021/05/05 03:51:36;;;;;;;3.72;2.83;;;10.10;57.40;;;;;;1488335;39;20026;-53
2021/05/05 03:52:57;;;;;;;4.93;2.92;;;10.10;57.40;;;;;;1490164;39;20031;-53
2021/05/05 03:54:18;;;;;;;5.90;3.00;;;10.10;57.40;;;;;;1490372;39;20027;-56
2021/05/05 03:55:39;;;;;;;2.75;2.47;;;10.10;57.50;;;;;;1491758;39;20062;-55
2021/05/05 03:57:00;;;;;;;4.45;3.08;;;10.10;57.50;;;;;;1491185;39;20346;-54
2021/05/05 03:58:21;;;;;;;6.53;3.15;;;10.10;57.60;;;;;;1489279;39;20031;-52
2021/05/05 03:59:42;;;;;;;4.53;3.40;;;10.10;57.60;;;;;;1490828;39;20038;-56
2021/05/05 04:01:03;;;;;;;3.80;3.33;;;10.10;57.60;;;;;;1489322;39;20032;-55
2021/05/05 04:02:24;;;;;;;3.50;3.15;;;10.10;57.70;;;;;;1489245;39;20032;-55
2021/05/05 04:03:45;;;;;;;5.40;3.00;;;10.10;57.80;;;;;;1490162;39;20047;-52
2021/05/05 04:05:07;;;;;;;3.92;3.00;;;10.10;57.80;;;;;;1490656;39;20035;-54
2021/05/05 04:06:28;;;;;;;4.97;2.92;;;10.10;57.70;;;;;;1491020;39;20522;-54
2021/05/05 04:07:49;;;;;;;3.28;2.92;;;10.10;57.80;;;;;;1490221;39;20658;-55
2021/05/05 04:09:11;;;;;;;4.22;3.35;;;10.10;57.80;;;;;;1491834;39;20056;-52
2021/05/05 04:10:32;;;;;;;3.60;3.20;;;10.10;57.80;;;;;;1491752;39;20123;-54
2021/05/05 04:11:53;;;;;;;5.30;3.20;;;10.10;57.80;;;;;;1491293;39;20108;-53
2021/05/05 04:13:14;;;;;;;3.88;3.08;;;10.10;57.70;;;;;;1491428;39;20035;-51
2021/05/05 04:14:35;;;;;;;4.35;3.30;;;10.10;57.80;;;;;;1491506;39;20112;-52
2021/05/05 04:15:56;;;;;;;4.95;3.22;;;10.10;57.80;;;;;;1490930;39;20264;-53
2021/05/05 04:17:17;;;;;;;5.50;3.47;;;10.10;57.80;;;;;;1491723;39;20043;-56
2021/05/05 04:18:38;;;;;;;4.38;3.25;;;10.10;57.80;;;;;;1490259;39;20257;-53
2021/05/05 04:19:59;;;;;;;4.75;3.58;;;10.10;57.80;;;;;;1490065;39;20036;-55
2021/05/05 04:21:21;;;;;;;4.13;2.90;;;10.10;58.40;;;;;;1490851;39;20038;-54
2021/05/05 04:22:42;;;;;;;5.55;3.47;;;10.10;57.90;;;;;;1489031;39;20423;-53
2021/05/05 04:24:05;;;;;;;4.97;3.35;;;10.10;58.50;;;;;;1491128;39;20044;-53
2021/05/05 04:25:26;;;;;;;3.65;3.22;;;10.10;58.00;;;;;;1490925;39;20473;-52
2021/05/05 04:26:49;;;;;;;4.85;3.38;;;10.10;58.00;;;;;;1490835;39;20288;-53
2021/05/05 04:28:10;;;;;;;4.65;3.38;;;10.10;57.90;;;;;;1491258;39;20043;-52
2021/05/05 04:29:31;;;;;;;7.57;4.22;;;10.10;58.00;;;;;;1490575;39;20331;-55
2021/05/05 04:30:52;;;;;;;5.32;4.03;;;10.10;58.00;;;;;;1491381;39;20459;-53
2021/05/05 04:32:13;;;;;;;5.70;3.40;;;10.10;58.00;;;;;;1489441;39;20117;-55
2021/05/05 04:33:34;;;;;;;11.18;3.88;;;10.10;58.00;;;;;;1489511;39;20106;-55
2021/05/05 04:34:55;;;;;;;5.03;3.45;;;10.10;58.10;;;;;;1491629;39;20027;-51
2021/05/05 04:36:16;;;;;;;3.42;3.13;;;10.10;58.00;;;;;;1491083;39;20047;-54
2021/05/05 04:37:37;;;;;;;3.72;3.25;;;10.10;58.00;;;;;;1491884;39;20024;-53
2021/05/05 04:38:58;;;;;;;3.53;3.17;;;10.10;58.00;;;;;;1491835;39;20264;-52
2021/05/05 04:40:19;;;;;;;4.35;3.47;;;10.10;58.00;;;;;;1492222;39;20469;-54
2021/05/05 04:41:40;;;;;;;3.83;3.10;;;10.10;58.00;;;;;;1491896;39;20024;-55
2021/05/05 04:43:01;;;;;;;4.07;3.00;;;10.10;58.00;;;;;;1491182;39;20022;-54
2021/05/05 04:44:22;;;;;;;6.20;3.92;;;10.10;58.00;;;;;;1490541;39;20085;-53
2021/05/05 04:45:43;;;;;;;3.90;3.50;;;10.10;58.00;;;;;;1490642;39;20145;-55
2021/05/05 04:47:04;;;;;;;4.47;3.80;;;10.10;58.00;;;;;;1491747;39;20068;-55
2021/05/05 04:48:25;;;;;;;3.83;3.53;;;10.10;58.10;;;;;;1491765;39;20035;-53
2021/05/05 04:49:46;;;;;;;3.95;3.60;;;10.10;58.20;;;;;;1491988;39;20085;-54
2021/05/05 04:51:07;;;;;;;5.38;3.90;;;10.10;58.20;;;;;;1489932;39;20036;-56
2021/05/05 04:52:28;;;;;;;5.18;3.10;;;10.10;58.20;;;;;;1491050;39;20027;-52
2021/05/05 04:53:49;;;;;;;5.60;3.60;;;10.10;58.20;;;;;;1491696;39;20361;-53
2021/05/05 04:55:11;;;;;;;5.53;3.42;;;10.10;58.20;;;;;;1490391;39;20037;-55
2021/05/05 04:56:32;;;;;;;3.83;3.13;;;10.10;58.40;;;;;;1491447;39;20032;-56
2021/05/05 04:57:53;;;;;;;4.95;3.42;;;10.10;58.20;;;;;;1492193;39;20028;-54
2021/05/05 04:59:14;;;;;;;4.50;3.45;;;10.10;58.30;;;;;;1491507;39;20028;-54
2021/05/05 05:00:36;;;;;;;3.80;3.40;;;10.10;58.30;;;;;;1483287;40;20254;-54
2021/05/05 05:01:56;;;;;;;3.75;3.20;;;10.20;58.30;;;;;;1487821;39;20266;-53
2021/05/05 05:03:17;;;;;;;4.82;3.38;;;10.20;58.90;;;;;;1487280;40;20048;-50
2021/05/05 05:04:39;;;;;;;3.33;3.03;;;10.20;58.40;;;;;;1488904;39;20020;-55
2021/05/05 05:06:00;;;;;;;3.42;2.85;;;10.20;58.30;;;;;;1490271;39;20392;-55
2021/05/05 05:07:21;;;;;;;6.03;3.20;;;10.20;58.30;;;;;;1490137;39;20035;-54
2021/05/05 05:08:43;;;;;;;4.80;3.17;;;10.20;58.20;;;;;;1492261;39;20046;-54
2021/05/05 05:10:05;;;;;;;5.88;3.10;;;10.20;58.20;;;;;;1491401;39;20064;-55
2021/05/05 05:11:26;;;;;;;3.00;2.70;;;10.30;58.30;;;;;;1491841;39;20055;-54
2021/05/05 05:12:47;;;;;;;4.13;3.00;;;10.30;58.20;;;;;;1490385;39;20090;-54
2021/05/05 05:14:09;;;;;;;4.20;3.20;;;10.20;58.20;;;;;;1489863;39;20036;-55
2021/05/05 05:15:31;;;;;;;3.55;3.10;;;10.30;58.20;;;;;;1490573;39;20072;-56
2021/05/05 05:16:51;;;;;;;3.63;3.15;;;10.30;58.30;;;;;;1491591;39;20028;-56
2021/05/05 05:18:12;;;;;;;4.55;3.25;;;10.30;58.20;;;;;;1491810;39;20031;-56
2021/05/05 05:19:33;;;;;;;4.53;3.20;;;10.30;58.20;;;;;;1490287;39;20018;-53
2021/05/05 05:20:54;;;;;;;5.35;3.53;;;10.30;58.20;;;;;;1488993;39;20328;-55
2021/05/05 05:22:15;;;;;;;6.07;3.25;;;10.40;58.30;;;;;;1491342;39;20116;-54
2021/05/05 05:23:36;;;;;;;3.78;3.05;;;10.40;58.30;;;;;;1488338;39;20028;-55
2021/05/05 05:24:57;;;;;;;6.97;3.38;;;10.40;58.30;;;;;;1486889;40;20109;-54
2021/05/05 05:26:18;;;;;;;6.13;3.25;;;10.40;58.30;;;;;;1485623;40;20118;-55
2021/05/05 05:27:39;;;;;;;4.97;3.70;;;10.40;58.30;;;;;;1489708;39;20253;-55
2021/05/05 05:29:01;;;;;;;6.30;3.55;;;10.40;58.40;;;;;;1491090;39;20368;-56
2021/05/05 05:30:22;;;;;;;5.10;3.67;;;10.40;58.40;;;;;;1490959;39;20043;-54
2021/05/05 05:31:43;;;;;;;4.53;3.45;;;10.40;58.40;;;;;;1489143;39;20032;-53
2021/05/05 05:33:05;;;;;;;5.18;3.60;;;10.40;58.50;;;;;;1491499;39;20046;-55
2021/05/05 05:34:26;;;;;;;3.55;3.25;;;10.50;58.60;;;;;;1491629;39;20040;-54
2021/05/05 05:35:47;;;;;;;5.50;3.95;;;10.50;58.60;;;;;;1491087;39;20043;-51
2021/05/05 05:37:07;;;;;;;4.10;3.53;;;10.50;58.70;;;;;;1490941;39;20030;-56
2021/05/05 05:38:28;;;;;;;5.95;3.70;;;10.50;58.70;;;;;;1491044;39;20250;-53
2021/05/05 05:39:49;;;;;;;4.15;3.67;;;10.50;58.70;;;;;;1491909;39;20042;-51
2021/05/05 05:41:10;;;;;;;6.60;3.50;;;10.50;58.80;;;;;;1490889;39;20039;-57
2021/05/05 05:42:31;;;;;;;3.40;3.10;;;10.60;58.80;;;;;;1491957;39;20055;-55
2021/05/05 05:43:52;;;;;;;5.53;3.42;;;10.60;58.70;;;;;;1489992;39;20080;-54
2021/05/05 05:45:16;;;;;;;5.43;3.67;;;10.60;58.70;;;;;;1491281;39;20540;-54
2021/05/05 05:46:39;;;;;;;3.80;3.25;;;10.60;58.60;;;;;;1490642;39;20024;-54
2021/05/05 05:48:00;;;;;;;5.78;3.70;;;10.60;58.70;;;;;;1491486;39;20032;-54
2021/05/05 05:49:21;;;;;;;4.63;3.55;;;10.60;58.60;;;;;;1491377;39;20032;-54
2021/05/05 05:50:42;;;;;;;7.85;3.70;;;10.70;58.60;;;;;;1491509;39;20036;-55
2021/05/05 05:52:03;;;;;;;7.10;3.90;;;10.70;58.60;;;;;;1491792;39;20120;-53
2021/05/05 05:53:24;;;;;;;4.78;3.33;;;10.70;58.90;;;;;;1490707;39;20112;-54
2021/05/05 05:54:45;;;;;;;6.90;3.90;;;10.70;58.60;;;;;;1489135;39;20085;-51
2021/05/05 05:56:06;;;;;;;5.20;3.50;;;10.70;58.50;;;;;;1491681;39;20032;-55
2021/05/05 05:57:27;;;;;;;11.05;4.60;;;10.80;58.50;;;;;;1488058;39;20117;-54
2021/05/05 05:58:48;;;;;;;7.43;3.83;;;10.80;58.50;;;;;;1491367;39;20460;-54
2021/05/05 06:00:12;;;;;;;5.88;3.35;;;10.80;58.60;;;;;;1491445;39;20036;-54
2021/05/05 06:01:33;;;;;;;5.03;3.63;;;10.80;58.60;;;;;;1488019;39;20027;-55
2021/05/05 06:02:54;;;;;;;6.40;3.78;;;10.80;58.60;;;;;;1490325;39;20055;-54
2021/05/05 06:04:18;;;;;;;5.35;3.80;;;10.90;58.60;;;;;;1491660;39;20050;-54
2021/05/05 06:05:39;;;;;;;5.10;3.38;;;10.90;58.70;;;;;;1490252;39;20040;-52
2021/05/05 06:06:59;;;;;;;7.13;4.35;;;10.90;58.60;;;;;;1489389;39;20039;-54
2021/05/05 06:08:21;;;;;;;7.57;3.70;;;11.00;58.60;;;;;;1490363;39;20048;-54
2021/05/05 06:09:42;;;;;;;6.63;3.78;;;10.90;58.50;;;;;;1488875;39;20124;-55
2021/05/05 06:11:05;;;;;;;6.40;3.50;;;11.00;58.60;;;;;;1489451;39;20135;-53
2021/05/05 06:12:26;;;;;;;5.47;3.33;;;11.00;58.70;;;;;;1489744;39;20040;-53
2021/05/05 06:13:47;;;;;;;6.68;3.63;;;11.10;58.70;;;;;;1490159;39;20250;-54
2021/05/05 06:15:10;;;;;;;7.10;3.63;;;11.10;58.50;;;;;;1490609;39;20028;-53
2021/05/05 06:16:31;;;;;;;6.40;3.53;;;11.10;58.40;;;;;;1488785;39;20042;-55
2021/05/05 06:17:52;;;;;;;9.35;3.83;;;11.20;58.40;;;;;;1489361;39;20377;-54
2021/05/05 06:19:13;;;;;;;5.60;3.60;;;11.20;58.20;;;;;;1490530;39;20719;-52
2021/05/05 06:20:34;;;;;;;6.40;3.60;;;11.20;58.10;;;;;;1490514;39;20020;-52
2021/05/05 06:21:55;;;;;;;6.50;3.80;;;11.20;58.10;;;;;;1488948;39;20036;-51
2021/05/05 06:23:16;;;;;;;4.45;3.00;;;11.30;58.20;;;;;;1489304;39;20040;-51
2021/05/05 06:24:37;;;;;;;6.65;3.72;;;11.30;58.10;;;;;;1490412;39;20040;-52
2021/05/05 06:25:58;;;;;;;6.25;3.47;;;11.30;58.10;;;;;;1490203;39;20035;-55
2021/05/05 06:27:19;;;;;;;6.35;3.80;;;11.30;58.20;;;;;;1490980;39;20124;-54
2021/05/05 06:28:39;;;;;;;7.10;3.78;;;11.30;58.10;;;;;;1490799;39;20035;-53
2021/05/05 06:30:01;;;;;;;5.28;3.38;;;11.30;58.20;;;;;;1490627;39;20046;-52
2021/05/05 06:31:22;;;;;;;4.70;3.38;;;11.30;58.30;;;;;;1491283;39;20575;-50
2021/05/05 06:32:43;;;;;;;6.47;3.67;;;11.30;58.20;;;;;;1490901;39;20089;-52
2021/05/05 06:34:04;;;;;;;4.57;3.70;;;11.20;58.10;;;;;;1490754;39;20278;-52
2021/05/05 06:35:25;;;;;;;6.20;3.67;;;11.20;58.00;;;;;;1488375;39;20024;-52
2021/05/05 06:36:46;;;;;;;4.85;3.30;;;11.20;58.10;;;;;;1490991;39;20031;-53
2021/05/05 06:38:07;;;;;;;4.22;3.35;;;11.20;58.20;;;;;;1491390;39;20339;-53
2021/05/05 06:39:28;;;;;;;5.07;3.10;;;11.10;58.20;;;;;;1490986;39;20019;-54
2021/05/05 06:40:49;;;;;;;4.50;2.70;;;11.10;58.00;;;;;;1491167;39;20042;-51
2021/05/05 06:42:11;;;;;;;4.18;3.13;;;11.10;57.90;;;;;;1490198;39;20032;-53
2021/05/05 06:43:33;;;;;;;4.72;2.95;;;11.00;57.80;;;;;;1490862;39;20036;-53
2021/05/05 06:44:54;;;;;;;4.13;3.25;;;11.00;57.90;;;;;;1490635;39;20028;-50
2021/05/05 06:46:15;;;;;;;5.13;3.30;;;11.00;57.90;;;;;;1491311;39;20028;-53
2021/05/05 06:47:36;;;;;;;3.80;3.35;;;10.90;57.80;;;;;;1486789;40;20388;-50
2021/05/05 06:48:58;;;;;;;4.18;3.10;;;10.90;57.90;;;;;;1488969;39;20027;-52
2021/05/05 06:50:19;;;;;;;3.65;2.78;;;10.90;57.90;;;;;;1491366;39;20027;-54
2021/05/05 06:51:40;;;;;;;5.32;2.95;;;10.90;58.00;;;;;;1491111;39;20054;-54
2021/05/05 06:53:01;;;;;;;3.10;2.80;;;10.90;58.00;;;;;;1491063;39;20028;-54
2021/05/05 06:54:22;;;;;;;3.35;2.60;;;10.90;58.10;;;;;;1489416;39;20040;-53
2021/05/05 06:55:43;;;;;;;7.13;2.92;;;10.80;58.00;;;;;;1490836;39;20111;-54
2021/05/05 06:57:05;;;;;;;5.40;3.47;;;10.80;58.00;;;;;;1491598;39;20051;-54
2021/05/05 06:58:26;;;;;;;2.78;2.58;;;10.80;58.10;;;;;;1490796;39;20039;-53
2021/05/05 06:59:47;;;;;;;7.18;2.92;;;10.80;58.20;;;;;;1490988;39;20356;-52
2021/05/05 07:01:08;;;;;;;6.55;3.03;;;10.80;58.30;;;;;;1488969;39;20024;-53
2021/05/05 07:02:29;;;;;;;3.78;3.28;;;10.80;58.30;;;;;;1491557;39;20066;-55
2021/05/05 07:03:50;;;;;;;3.95;3.00;;;10.70;58.10;;;;;;1491550;39;20024;-55